East Hodge, Louisiana
Current Conditions -  °F | °C
As of 5:35 PM on Monday 22 Dec 2014 (Local Time) from KRSN Reporting Station
Overcast Overcast  
Wind Chill: 61°   Ceiling: 3400
Heat Index: 61°   Visibility: 10mi
Dew Point: 59°   Wind: 0mph
Humidity: 96%   Direction: NA
Pressure: 29.64"   Gusts: NA
Location:  32.2776°N, 92.713°W
Report Text: KRSN 222335Z AUTO 00000KT 10SM SCT023 BKN034 OVC041 16/15 A2964 RMK AO2 T01590152
Loading
Personal Weather Stations






























Interactive Weather Map New forecast layout! Learn more

10-Day Weather Forecast

Advertisements
Track Severe Weather on mobile